Time;durP1;ratioP1;P1;durP2;ratioP2;P2;SDS_P1;SDS_P2;PMS_P1;PMS_P2;Temp;Humidity;BMP_temperature;BMP_pressure;BME280_temperature;BME280_humidity;BME280_pressure;Samples;Min_cycle;Max_cycle;Signal;HPM_P1;HPM_P2
2024/02/26 00:00:05;;;;;;;9.23;6.60;;;4.00;99.90;;;;;;5014740;28;20406;-74
2024/02/26 00:02:31;;;;;;;9.68;6.55;;;4.00;99.90;;;;;;5027529;28;20060;-74
2024/02/26 00:04:57;;;;;;;14.05;7.30;;;4.00;99.90;;;;;;5010904;28;20580;-74
2024/02/26 00:07:24;;;;;;;12.15;5.90;;;4.10;99.90;;;;;;5030842;28;20053;-75
2024/02/26 00:09:50;;;;;;;10.73;7.45;;;4.10;99.90;;;;;;5030946;28;20491;-74
2024/02/26 00:12:19;;;;;;;9.93;6.85;;;4.10;99.90;;;;;;5015889;28;20815;-74
2024/02/26 00:14:46;;;;;;;10.88;6.75;;;4.10;99.90;;;;;;5027075;28;20041;-74
2024/02/26 00:17:13;;;;;;;9.00;6.55;;;4.10;99.90;;;;;;5026901;28;20518;-75
2024/02/26 00:19:39;;;;;;;9.98;6.75;;;4.10;99.90;;;;;;5007316;28;20544;-75
2024/02/26 00:22:04;;;;;;;9.63;6.90;;;4.10;99.90;;;;;;5018166;28;20041;-74
2024/02/26 00:24:30;;;;;;;10.80;6.60;;;4.10;99.90;;;;;;5030683;28;20049;-74
2024/02/26 00:26:56;;;;;;;12.82;6.20;;;4.00;99.90;;;;;;5006589;28;20582;-74
2024/02/26 00:29:22;;;;;;;13.40;6.65;;;4.10;99.90;;;;;;5011659;28;20700;-75
2024/02/26 00:31:49;;;;;;;11.20;6.30;;;4.00;99.90;;;;;;5008720;28;20084;-75
2024/02/26 00:34:14;;;;;;;9.85;6.18;;;4.10;99.90;;;;;;5018916;28;20545;-74
2024/02/26 00:36:40;;;;;;;11.70;6.22;;;4.10;99.90;;;;;;5003585;28;20531;-74
2024/02/26 00:39:06;;;;;;;8.70;6.35;;;4.10;99.90;;;;;;5011985;28;20060;-74
2024/02/26 00:41:32;;;;;;;8.50;6.22;;;4.10;99.90;;;;;;5015906;28;20063;-74
2024/02/26 00:43:57;;;;;;;7.28;5.53;;;4.20;99.90;;;;;;5001106;28;20037;-74
2024/02/26 00:46:23;;;;;;;8.50;5.70;;;4.10;99.90;;;;;;5024485;28;20041;-74
2024/02/26 00:48:49;;;;;;;7.47;5.97;;;4.30;99.90;;;;;;5011877;28;20118;-75
2024/02/26 00:51:15;;;;;;;10.05;5.72;;;4.20;99.90;;;;;;4999915;28;20085;-75
2024/02/26 00:53:41;;;;;;;5.10;4.57;;;4.20;99.90;;;;;;5016754;28;20052;-75
2024/02/26 00:56:06;;;;;;;10.65;5.05;;;4.20;99.90;;;;;;5028035;28;20118;-75
2024/02/26 00:58:32;;;;;;;6.53;4.40;;;4.20;99.90;;;;;;5032959;28;20084;-75
2024/02/26 01:00:58;;;;;;;10.18;5.20;;;4.20;99.90;;;;;;5009785;28;20135;-74
2024/02/26 01:03:24;;;;;;;5.45;4.15;;;4.30;99.90;;;;;;5037297;28;20052;-74
2024/02/26 01:05:49;;;;;;;5.28;4.43;;;4.20;99.90;;;;;;5038616;28;20051;-75
2024/02/26 01:08:15;;;;;;;6.78;4.75;;;4.30;99.90;;;;;;5031610;28;20059;-75
2024/02/26 01:10:41;;;;;;;10.93;5.50;;;4.30;99.90;;;;;;5017258;28;20482;-75
2024/02/26 01:13:07;;;;;;;8.00;5.30;;;4.20;99.90;;;;;;4978259;28;20659;-75
2024/02/26 01:15:33;;;;;;;6.88;4.70;;;4.20;99.90;;;;;;5001982;28;20554;-74
2024/02/26 01:17:59;;;;;;;8.65;4.70;;;4.20;99.90;;;;;;5031606;28;20065;-75
2024/02/26 01:20:25;;;;;;;5.22;4.72;;;4.20;99.90;;;;;;5011595;28;20459;-74
2024/02/26 01:22:50;;;;;;;9.40;4.68;;;4.20;99.90;;;;;;5026331;28;20064;-74
2024/02/26 01:25:16;;;;;;;10.63;4.63;;;4.20;99.90;;;;;;4997249;28;20392;-75
2024/02/26 01:27:43;;;;;;;4.78;4.05;;;4.20;99.90;;;;;;5025575;28;20048;-74
2024/02/26 01:30:10;;;;;;;5.60;5.00;;;4.20;99.90;;;;;;5010114;28;20336;-75
2024/02/26 01:32:36;;;;;;;5.93;4.57;;;4.10;99.90;;;;;;5008069;28;20104;-75
2024/02/26 01:35:05;;;;;;;7.07;4.38;;;4.20;99.90;;;;;;5017299;28;20518;-75
2024/02/26 01:37:30;;;;;;;8.63;4.45;;;4.10;99.90;;;;;;5021635;28;20049;-74
2024/02/26 01:39:56;;;;;;;4.30;3.90;;;4.20;99.90;;;;;;4992081;28;20407;-74
2024/02/26 01:42:22;;;;;;;6.70;4.00;;;4.10;99.90;;;;;;5016674;28;20461;-74
2024/02/26 01:44:48;;;;;;;5.60;4.60;;;4.20;99.90;;;;;;5033079;28;20079;-74
2024/02/26 01:47:14;;;;;;;5.43;4.28;;;4.20;99.90;;;;;;5012375;28;20167;-74
2024/02/26 01:49:40;;;;;;;5.63;4.22;;;4.10;99.90;;;;;;5023940;28;20572;-74
2024/02/26 01:52:08;;;;;;;6.50;3.83;;;4.10;99.90;;;;;;5041527;28;20487;-74
2024/02/26 01:54:36;;;;;;;8.32;4.03;;;4.10;99.90;;;;;;5024629;28;20057;-74
2024/02/26 01:57:04;;;;;;;4.60;3.65;;;4.00;99.90;;;;;;5025462;28;20048;-75
2024/02/26 01:59:29;;;;;;;4.65;4.20;;;4.10;99.90;;;;;;5026533;28;20120;-74
2024/02/26 02:01:57;;;;;;;5.05;4.55;;;4.10;99.90;;;;;;5004312;28;20056;-74
2024/02/26 02:04:24;;;;;;;6.78;3.65;;;4.10;99.90;;;;;;5026392;28;20048;-74
2024/02/26 02:06:52;;;;;;;3.60;3.30;;;4.10;99.90;;;;;;4997200;28;20053;-74
2024/02/26 02:09:18;;;;;;;4.20;3.80;;;4.10;99.90;;;;;;5024792;28;20048;-75
2024/02/26 02:11:44;;;;;;;5.55;3.80;;;4.00;99.90;;;;;;4992349;28;20120;-75
2024/02/26 02:14:10;;;;;;;4.40;3.20;;;4.00;99.90;;;;;;5004049;28;20522;-74
2024/02/26 02:16:36;;;;;;;5.45;3.25;;;4.00;99.90;;;;;;5025776;28;20052;-75
2024/02/26 02:19:02;;;;;;;2.72;2.53;;;4.10;99.90;;;;;;5024902;28;20044;-74
2024/02/26 02:21:27;;;;;;;2.85;2.65;;;4.00;99.90;;;;;;5025602;28;20578;-75
2024/02/26 02:23:53;;;;;;;2.45;2.25;;;4.00;99.90;;;;;;5018871;28;20055;-75
2024/02/26 02:26:19;;;;;;;4.82;2.35;;;4.10;99.90;;;;;;5012024;28;20057;-75
2024/02/26 02:28:46;;;;;;;2.42;2.20;;;4.00;99.90;;;;;;5033808;28;20486;-75
2024/02/26 02:31:12;;;;;;;2.75;2.55;;;4.00;99.90;;;;;;5029863;28;20326;-74
2024/02/26 02:33:38;;;;;;;2.30;2.20;;;4.00;99.90;;;;;;5032933;28;20075;-75
2024/02/26 02:36:09;;;;;;;2.00;1.88;;;3.90;99.90;;;;;;5014946;28;20178;-75
2024/02/26 02:38:34;;;;;;;2.25;1.65;;;3.90;99.90;;;;;;5012717;28;20655;-75
2024/02/26 02:41:00;;;;;;;1.80;1.70;;;3.90;99.90;;;;;;5035888;28;20070;-75
2024/02/26 02:43:26;;;;;;;2.65;1.90;;;3.90;99.90;;;;;;5027656;28;20077;-74
2024/02/26 02:45:51;;;;;;;2.28;1.67;;;3.90;99.90;;;;;;5007191;28;20045;-75
2024/02/26 02:48:17;;;;;;;2.67;1.90;;;3.90;99.90;;;;;;5009217;28;20053;-75
2024/02/26 02:50:43;;;;;;;3.20;1.70;;;3.90;99.90;;;;;;5024825;28;20047;-74
2024/02/26 02:53:10;;;;;;;2.28;1.65;;;3.90;99.90;;;;;;5025718;28;20453;-75
2024/02/26 02:55:35;;;;;;;2.38;1.40;;;3.80;99.90;;;;;;5008569;28;20059;-75
2024/02/26 02:58:01;;;;;;;1.85;1.75;;;3.80;99.90;;;;;;5035701;28;20387;-75
2024/02/26 03:00:27;;;;;;;1.27;1.20;;;3.80;99.90;;;;;;5010762;28;20084;-75
2024/02/26 03:02:52;;;;;;;1.73;1.63;;;3.80;99.90;;;;;;5022919;28;20504;-74
2024/02/26 03:05:18;;;;;;;1.95;1.45;;;3.80;99.90;;;;;;5024257;28;20273;-75
2024/02/26 03:07:44;;;;;;;1.95;1.77;;;3.70;99.90;;;;;;5023778;28;20045;-74
2024/02/26 03:10:10;;;;;;;1.42;1.33;;;3.70;99.90;;;;;;5018211;28;20411;-74
2024/02/26 03:12:35;;;;;;;4.32;1.40;;;3.70;99.90;;;;;;5028463;28;20049;-75
2024/02/26 03:15:02;;;;;;;1.17;0.88;;;3.70;99.90;;;;;;5024234;28;20049;-74
2024/02/26 03:17:31;;;;;;;1.52;1.42;;;3.70;99.90;;;;;;5024338;28;20056;-75
2024/02/26 03:19:57;;;;;;;4.20;1.40;;;3.70;99.90;;;;;;5000193;28;20492;-75
2024/02/26 03:22:23;;;;;;;2.17;1.75;;;3.80;99.90;;;;;;5013736;28;20049;-74
2024/02/26 03:24:48;;;;;;;1.27;1.27;;;3.80;99.90;;;;;;5042697;28;20098;-75
2024/02/26 03:27:14;;;;;;;1.58;1.42;;;3.80;99.90;;;;;;5024972;28;20041;-74
2024/02/26 03:29:40;;;;;;;1.50;1.40;;;3.80;99.90;;;;;;5023679;28;20494;-75
2024/02/26 03:32:06;;;;;;;5.40;1.77;;;3.70;99.90;;;;;;4999110;28;20081;-74
2024/02/26 03:34:35;;;;;;;7.95;1.77;;;3.80;99.90;;;;;;5019168;28;20127;-75
2024/02/26 03:37:01;;;;;;;2.33;1.38;;;3.70;99.90;;;;;;5022190;28;20094;-75
2024/02/26 03:39:27;;;;;;;2.28;2.08;;;3.80;99.90;;;;;;5024827;28;20053;-75
2024/02/26 03:41:54;;;;;;;1.80;1.70;;;3.80;99.90;;;;;;5006757;28;20040;-74
2024/02/26 03:44:20;;;;;;;2.35;1.73;;;3.70;99.90;;;;;;5007837;28;20515;-75
2024/02/26 03:46:45;;;;;;;5.50;1.27;;;3.70;99.90;;;;;;5023452;28;20560;-75
2024/02/26 03:49:11;;;;;;;3.72;1.60;;;3.70;99.90;;;;;;5023841;28;20376;-75
2024/02/26 03:51:37;;;;;;;2.35;1.70;;;3.80;99.90;;;;;;5025343;28;20395;-74
2024/02/26 03:54:03;;;;;;;3.58;1.88;;;3.80;99.90;;;;;;5000475;28;20107;-75
2024/02/26 03:56:29;;;;;;;1.73;1.08;;;3.80;99.90;;;;;;5018027;28;20121;-74
2024/02/26 03:58:54;;;;;;;3.17;1.48;;;3.80;99.90;;;;;;5022305;28;20052;-75
2024/02/26 04:01:20;;;;;;;1.65;1.50;;;3.80;99.90;;;;;;5007902;28;20488;-75
2024/02/26 04:03:46;;;;;;;1.17;1.17;;;3.80;99.90;;;;;;5022884;28;20037;-75
2024/02/26 04:06:15;;;;;;;1.20;1.13;;;3.80;99.90;;;;;;5024776;28;20480;-75
2024/02/26 04:08:41;;;;;;;2.35;1.30;;;3.70;99.90;;;;;;5006734;28;20041;-75
2024/02/26 04:11:07;;;;;;;1.70;1.20;;;3.70;99.90;;;;;;5037213;28;20098;-75
2024/02/26 04:13:33;;;;;;;1.55;1.42;;;3.80;99.90;;;;;;4991708;28;20049;-75
2024/02/26 04:16:01;;;;;;;1.80;1.70;;;3.80;99.90;;;;;;5025103;28;20060;-74
2024/02/26 04:18:28;;;;;;;2.13;1.58;;;3.70;99.90;;;;;;4999740;28;20045;-74
2024/02/26 04:20:54;;;;;;;0.95;0.95;;;3.70;99.90;;;;;;5020239;28;20131;-75
2024/02/26 04:23:19;;;;;;;0.80;0.80;;;3.80;99.90;;;;;;5025658;28;20521;-74
2024/02/26 04:25:45;;;;;;;1.10;1.00;;;3.70;99.90;;;;;;5027053;28;20048;-74
2024/02/26 04:28:12;;;;;;;1.38;1.27;;;3.80;99.90;;;;;;5015602;28;20048;-75
2024/02/26 04:30:38;;;;;;;2.83;1.35;;;3.80;99.90;;;;;;5018781;28;20067;-75
2024/02/26 04:33:03;;;;;;;3.63;1.52;;;3.70;99.90;;;;;;5009934;28;20108;-75
2024/02/26 04:35:29;;;;;;;2.08;1.30;;;3.80;99.90;;;;;;4987006;28;20176;-74
2024/02/26 04:37:55;;;;;;;4.80;1.20;;;3.80;99.90;;;;;;4985678;28;20111;-74
2024/02/26 04:40:21;;;;;;;1.05;0.98;;;3.70;99.90;;;;;;5010307;28;20533;-75
2024/02/26 04:42:46;;;;;;;1.33;1.23;;;3.80;99.90;;;;;;5025956;28;20041;-75
2024/02/26 04:45:12;;;;;;;1.10;1.10;;;3.70;99.90;;;;;;5029689;28;20079;-75
2024/02/26 04:47:39;;;;;;;1.13;1.13;;;3.70;99.90;;;;;;5036741;28;20413;-75
2024/02/26 04:50:06;;;;;;;2.15;1.17;;;3.70;99.90;;;;;;5010848;28;20052;-75
2024/02/26 04:52:31;;;;;;;1.23;1.13;;;3.70;99.90;;;;;;5002465;28;20052;-75
2024/02/26 04:54:59;;;;;;;1.58;1.48;;;3.70;99.90;;;;;;5020958;28;20044;-75
2024/02/26 04:57:26;;;;;;;1.15;0.93;;;3.70;99.90;;;;;;5018914;28;20453;-75
2024/02/26 04:59:52;;;;;;;1.23;0.95;;;3.60;99.90;;;;;;5014192;28;20411;-75
2024/02/26 05:02:18;;;;;;;1.10;1.05;;;3.60;99.90;;;;;;5010056;28;20045;-74
2024/02/26 05:04:43;;;;;;;1.23;1.15;;;3.70;99.90;;;;;;5026302;28;20552;-75
2024/02/26 05:07:09;;;;;;;2.05;1.15;;;3.70;99.90;;;;;;4996380;28;20040;-75
2024/02/26 05:09:35;;;;;;;1.25;1.15;;;3.70;99.90;;;;;;5019778;28;20475;-74
2024/02/26 05:12:01;;;;;;;1.95;1.40;;;3.70;99.90;;;;;;5017849;28;20076;-75
2024/02/26 05:14:27;;;;;;;1.50;1.17;;;3.70;99.90;;;;;;5011460;28;20389;-74
2024/02/26 05:16:53;;;;;;;1.20;1.10;;;3.70;99.90;;;;;;5007860;28;20040;-74
2024/02/26 05:19:18;;;;;;;1.10;1.05;;;3.70;99.90;;;;;;5028535;28;20052;-75
2024/02/26 05:21:44;;;;;;;1.05;0.95;;;3.70;99.90;;;;;;5002376;28;20203;-75
2024/02/26 05:24:10;;;;;;;1.10;1.10;;;3.70;99.90;;;;;;5035783;28;20131;-75
2024/02/26 05:26:36;;;;;;;1.00;1.00;;;3.70;99.90;;;;;;5010519;28;20037;-74
2024/02/26 05:29:02;;;;;;;1.35;1.35;;;3.70;99.90;;;;;;5010060;28;20057;-75
2024/02/26 05:31:28;;;;;;;3.45;1.20;;;3.80;99.90;;;;;;5009378;28;20400;-75
2024/02/26 05:33:54;;;;;;;2.38;1.10;;;3.70;99.90;;;;;;5007487;28;20064;-75
2024/02/26 05:36:22;;;;;;;1.10;1.10;;;3.70;99.90;;;;;;5010886;28;20114;-75
2024/02/26 05:38:48;;;;;;;1.02;1.02;;;3.80;99.90;;;;;;5008728;28;20503;-74
2024/02/26 05:41:16;;;;;;;1.25;1.15;;;3.70;99.90;;;;;;5027173;28;20052;-75
2024/02/26 05:43:42;;;;;;;0.85;0.85;;;3.70;99.90;;;;;;5009399;28;20178;-74
2024/02/26 05:46:08;;;;;;;2.20;1.17;;;3.80;99.90;;;;;;5026085;28;20061;-74
2024/02/26 05:48:34;;;;;;;5.63;1.38;;;3.80;99.90;;;;;;5026475;28;20049;-74
2024/02/26 05:50:59;;;;;;;1.50;1.40;;;3.80;99.90;;;;;;5025455;28;20048;-75
2024/02/26 05:53:25;;;;;;;1.20;1.17;;;3.80;99.90;;;;;;5026792;28;20437;-74
2024/02/26 05:55:51;;;;;;;1.20;1.20;;;3.80;99.90;;;;;;4983833;28;20049;-75
2024/02/26 05:58:16;;;;;;;1.80;0.90;;;3.80;99.90;;;;;;5020909;28;20049;-74
2024/02/26 06:00:42;;;;;;;1.20;1.20;;;3.80;99.90;;;;;;5025314;28;20042;-75
2024/02/26 06:03:08;;;;;;;2.47;1.15;;;3.80;99.90;;;;;;5025996;28;20137;-75
2024/02/26 06:05:34;;;;;;;1.23;1.13;;;3.80;99.90;;;;;;5009368;28;20048;-74
2024/02/26 06:08:00;;;;;;;0.90;0.90;;;3.80;99.90;;;;;;5008602;28;20511;-75
2024/02/26 06:10:26;;;;;;;1.50;0.85;;;3.80;99.90;;;;;;5038496;28;20052;-75
2024/02/26 06:12:52;;;;;;;1.10;1.00;;;3.80;99.90;;;;;;4997179;28;20098;-75
2024/02/26 06:15:17;;;;;;;2.00;1.08;;;3.80;99.90;;;;;;5035855;28;20547;-75
2024/02/26 06:17:43;;;;;;;1.20;1.20;;;3.90;99.90;;;;;;5024753;28;20135;-74
2024/02/26 06:20:12;;;;;;;1.20;1.10;;;3.90;99.90;;;;;;5026202;28;20056;-75
2024/02/26 06:22:42;;;;;;;1.00;0.88;;;3.80;99.90;;;;;;5025190;28;20099;-75
2024/02/26 06:25:08;;;;;;;3.22;1.30;;;3.80;99.90;;;;;;5024691;28;20401;-75
2024/02/26 06:27:35;;;;;;;1.77;1.17;;;3.80;99.90;;;;;;5026247;28;20043;-74
2024/02/26 06:30:02;;;;;;;1.33;1.15;;;3.90;99.90;;;;;;5023933;28;20144;-74
2024/02/26 06:32:29;;;;;;;0.98;0.98;;;3.80;99.90;;;;;;5021714;28;20561;-74
2024/02/26 06:34:55;;;;;;;1.40;1.30;;;3.70;99.90;;;;;;5029025;28;20049;-75
2024/02/26 06:37:21;;;;;;;1.10;1.10;;;3.70;99.90;;;;;;5019750;28;20048;-74
2024/02/26 06:39:47;;;;;;;3.38;1.38;;;3.70;99.90;;;;;;5024701;28;20044;-75
2024/02/26 06:42:13;;;;;;;1.40;1.30;;;3.70;99.90;;;;;;5040681;28;20124;-75
2024/02/26 06:44:40;;;;;;;1.27;1.17;;;3.70;99.90;;;;;;5015487;28;20051;-74
2024/02/26 06:47:05;;;;;;;5.40;1.17;;;3.70;99.90;;;;;;4990629;28;20041;-75
2024/02/26 06:49:31;;;;;;;0.90;0.90;;;3.70;99.90;;;;;;5012868;28;20151;-75
2024/02/26 06:51:57;;;;;;;1.27;1.17;;;3.70;99.90;;;;;;5025557;28;20068;-75
2024/02/26 06:54:23;;;;;;;1.35;1.25;;;3.60;99.90;;;;;;5011962;28;20037;-75
2024/02/26 06:56:48;;;;;;;2.50;1.40;;;3.60;99.90;;;;;;5027213;28;20574;-75
2024/02/26 06:59:14;;;;;;;1.60;1.40;;;3.70;99.90;;;;;;5011699;28;20085;-75
2024/02/26 07:01:43;;;;;;;1.40;1.23;;;3.70;99.90;;;;;;5012727;28;20048;-75
2024/02/26 07:04:10;;;;;;;1.10;1.10;;;3.70;99.90;;;;;;5028095;28;20096;-75
2024/02/26 07:06:36;;;;;;;1.67;1.20;;;3.70;99.90;;;;;;5025081;28;20055;-75
2024/02/26 07:09:02;;;;;;;0.95;0.95;;;3.70;99.90;;;;;;5007699;28;20048;-74
2024/02/26 07:11:28;;;;;;;5.50;1.30;;;3.80;99.90;;;;;;5038899;28;20049;-75
2024/02/26 07:13:54;;;;;;;1.30;1.30;;;3.80;99.90;;;;;;5035731;28;20076;-74
2024/02/26 07:16:20;;;;;;;1.88;1.20;;;3.80;99.90;;;;;;5010037;28;20047;-75
2024/02/26 07:18:46;;;;;;;2.08;1.30;;;3.80;99.90;;;;;;5024512;28;20179;-74
2024/02/26 07:21:12;;;;;;;3.22;1.38;;;3.80;99.90;;;;;;5023842;28;20045;-74
2024/02/26 07:23:38;;;;;;;1.55;1.05;;;3.90;99.90;;;;;;5008968;28;20037;-75
2024/02/26 07:26:04;;;;;;;4.55;1.25;;;3.80;99.90;;;;;;5006419;28;20040;-75
2024/02/26 07:28:29;;;;;;;1.67;1.02;;;3.90;99.90;;;;;;5002086;28;20284;-75
2024/02/26 07:30:55;;;;;;;2.58;1.30;;;3.90;99.90;;;;;;4999103;28;20371;-75
2024/02/26 07:33:21;;;;;;;1.30;1.20;;;3.90;99.90;;;;;;5041115;28;20110;-74
2024/02/26 07:35:49;;;;;;;2.92;1.00;;;3.90;99.90;;;;;;5019091;28;20052;-75
2024/02/26 07:38:15;;;;;;;1.75;1.20;;;4.00;99.90;;;;;;5027434;28;20515;-75
2024/02/26 07:40:41;;;;;;;0.88;0.82;;;4.00;99.90;;;;;;5024647;28;20127;-75
2024/02/26 07:43:06;;;;;;;1.05;1.00;;;4.00;99.90;;;;;;5023493;28;20136;-75
2024/02/26 07:45:32;;;;;;;1.17;1.00;;;4.00;99.90;;;;;;5024952;28;20383;-75
2024/02/26 07:47:58;;;;;;;2.55;0.90;;;4.00;99.90;;;;;;5009984;28;20060;-74
2024/02/26 07:50:23;;;;;;;1.20;1.10;;;4.00;99.90;;;;;;4988910;28;20108;-75
2024/02/26 07:52:51;;;;;;;2.40;0.90;;;4.10;99.90;;;;;;5018986;28;20059;-75
2024/02/26 07:55:17;;;;;;;1.45;1.13;;;4.10;99.90;;;;;;5027462;28;20383;-75
2024/02/26 07:57:43;;;;;;;0.93;0.93;;;4.10;99.90;;;;;;5007292;28;20636;-74
2024/02/26 08:00:10;;;;;;;0.90;0.90;;;4.10;99.90;;;;;;5034684;28;20057;-74
2024/02/26 08:02:39;;;;;;;1.13;1.13;;;4.10;99.90;;;;;;5023749;28;20048;-75
2024/02/26 08:05:04;;;;;;;1.35;1.23;;;4.20;99.90;;;;;;5034983;28;20049;-75
2024/02/26 08:07:30;;;;;;;2.67;1.38;;;4.10;99.90;;;;;;5031224;28;20485;-75
2024/02/26 08:09:56;;;;;;;1.25;1.15;;;4.20;99.90;;;;;;5019982;28;20047;-74
2024/02/26 08:12:22;;;;;;;1.33;1.20;;;4.20;99.90;;;;;;5041415;28;20105;-75
2024/02/26 08:14:47;;;;;;;2.58;1.30;;;4.30;99.90;;;;;;5036767;28;20052;-74
2024/02/26 08:17:13;;;;;;;1.13;1.13;;;4.20;99.90;;;;;;5041190;28;20561;-75
2024/02/26 08:19:39;;;;;;;2.53;1.40;;;4.30;99.90;;;;;;5036120;28;20106;-75
2024/02/26 08:22:04;;;;;;;8.15;1.48;;;4.30;99.90;;;;;;5039915;28;20120;-75
2024/02/26 08:24:30;;;;;;;2.15;1.48;;;4.30;99.90;;;;;;5029184;28;20049;-74
2024/02/26 08:26:56;;;;;;;2.05;1.20;;;4.30;99.90;;;;;;5027825;28;20044;-74
2024/02/26 08:29:22;;;;;;;1.27;1.20;;;4.40;99.90;;;;;;5033987;28;20037;-74
2024/02/26 08:31:48;;;;;;;1.27;1.17;;;4.40;99.90;;;;;;5021308;28;20140;-75
2024/02/26 08:34:14;;;;;;;2.22;1.30;;;4.40;99.90;;;;;;5020833;28;20053;-75
2024/02/26 08:36:40;;;;;;;2.38;1.40;;;4.50;99.90;;;;;;5033538;28;20071;-75
2024/02/26 08:39:07;;;;;;;1.38;1.27;;;4.40;99.90;;;;;;5030613;28;20060;-75
2024/02/26 08:41:32;;;;;;;0.70;0.60;;;4.50;99.90;;;;;;5035117;28;20043;-75
2024/02/26 08:43:58;;;;;;;1.20;1.20;;;4.50;99.90;;;;;;5027736;28;20061;-74
2024/02/26 08:46:24;;;;;;;8.48;1.60;;;4.50;99.90;;;;;;5013998;28;20060;-75
2024/02/26 08:48:49;;;;;;;1.05;1.05;;;4.50;99.90;;;;;;5028529;28;20048;-74
2024/02/26 08:51:16;;;;;;;1.60;1.50;;;4.60;99.90;;;;;;5013883;28;20053;-75
2024/02/26 08:53:41;;;;;;;2.42;1.40;;;4.50;99.90;;;;;;5031296;28;20041;-74
2024/02/26 08:56:07;;;;;;;1.40;1.27;;;4.60;99.90;;;;;;5029154;28;20099;-74
2024/02/26 08:58:33;;;;;;;3.10;1.30;;;4.70;99.90;;;;;;5010525;28;20552;-74
2024/02/26 09:00:58;;;;;;;1.40;1.30;;;4.70;99.90;;;;;;5019668;28;20055;-74
2024/02/26 09:03:26;;;;;;;2.17;1.42;;;4.70;99.90;;;;;;5030131;28;20084;-74
2024/02/26 09:05:51;;;;;;;1.40;1.30;;;4.70;99.90;;;;;;5017630;28;20041;-74
2024/02/26 09:08:17;;;;;;;1.90;1.80;;;4.80;99.90;;;;;;5039488;28;20048;-74
2024/02/26 09:10:43;;;;;;;5.80;1.98;;;4.80;99.90;;;;;;5025018;28;20087;-74
2024/02/26 09:13:08;;;;;;;2.83;1.75;;;4.80;99.90;;;;;;5001107;28;20110;-74
2024/02/26 09:15:34;;;;;;;2.55;1.48;;;4.90;99.90;;;;;;5033756;28;20048;-75
2024/02/26 09:18:00;;;;;;;5.13;1.50;;;4.90;99.90;;;;;;5011555;28;20037;-75
2024/02/26 09:20:26;;;;;;;1.45;1.35;;;5.00;99.90;;;;;;5005449;28;20143;-75
2024/02/26 09:22:51;;;;;;;2.95;1.42;;;4.90;99.90;;;;;;5025202;28;20049;-74
2024/02/26 09:25:17;;;;;;;2.63;1.48;;;5.00;99.90;;;;;;5030288;28;20510;-74
2024/02/26 09:27:44;;;;;;;1.48;1.38;;;5.00;99.90;;;;;;5028788;28;20132;-74
2024/02/26 09:30:11;;;;;;;1.60;1.50;;;5.00;99.90;;;;;;5043508;28;20051;-74
2024/02/26 09:32:38;;;;;;;2.72;1.90;;;5.10;99.90;;;;;;5027181;28;20103;-73
2024/02/26 09:35:05;;;;;;;2.03;1.92;;;5.10;99.90;;;;;;5009694;28;20466;-74
2024/02/26 09:37:30;;;;;;;2.50;1.80;;;5.10;99.90;;;;;;5012164;28;20051;-75
2024/02/26 09:39:56;;;;;;;3.63;1.63;;;5.10;99.90;;;;;;5007639;28;20041;-74
2024/02/26 09:42:26;;;;;;;1.70;1.60;;;5.10;99.90;;;;;;4991796;28;20110;-74
2024/02/26 09:44:57;;;;;;;4.80;1.52;;;5.20;99.90;;;;;;4996369;28;20106;-74
2024/02/26 09:47:23;;;;;;;1.55;1.45;;;5.30;99.90;;;;;;5011397;28;20052;-75
2024/02/26 09:49:52;;;;;;;1.60;1.50;;;5.30;99.90;;;;;;5032874;28;20052;-74
2024/02/26 09:52:20;;;;;;;1.67;1.58;;;5.30;99.90;;;;;;5032207;28;20542;-74
2024/02/26 09:54:49;;;;;;;3.55;1.80;;;5.30;99.90;;;;;;5022348;28;20048;-74
2024/02/26 09:57:17;;;;;;;2.22;2.13;;;5.30;99.90;;;;;;5037048;28;20114;-74
2024/02/26 09:59:43;;;;;;;1.52;1.45;;;5.40;99.90;;;;;;5009481;28;20045;-74
2024/02/26 10:02:12;;;;;;;4.07;2.13;;;5.30;99.90;;;;;;5023085;28;20411;-74
2024/02/26 10:04:40;;;;;;;2.83;2.50;;;5.40;99.90;;;;;;5011290;28;20064;-74
2024/02/26 10:07:11;;;;;;;2.00;1.83;;;5.40;99.90;;;;;;5021073;28;20053;-73
2024/02/26 10:09:37;;;;;;;2.60;1.60;;;5.50;99.90;;;;;;5029341;28;20047;-74
2024/02/26 10:12:04;;;;;;;1.92;1.80;;;5.50;99.90;;;;;;5009058;28;20083;-74
2024/02/26 10:14:31;;;;;;;2.15;1.73;;;5.60;99.90;;;;;;5010012;28;20129;-74
2024/02/26 10:16:57;;;;;;;3.03;1.92;;;5.60;99.90;;;;;;5013171;28;20048;-74
2024/02/26 10:19:29;;;;;;;5.13;1.90;;;5.60;99.90;;;;;;5035601;28;20040;-74
2024/02/26 10:22:00;;;;;;;1.75;1.25;;;5.60;99.90;;;;;;5010434;28;20419;-74
2024/02/26 10:24:27;;;;;;;2.80;1.42;;;5.60;99.90;;;;;;5028804;28;20566;-73
2024/02/26 10:26:55;;;;;;;3.92;1.65;;;5.60;99.90;;;;;;5011851;28;20060;-73
2024/02/26 10:29:23;;;;;;;3.20;1.42;;;5.70;99.90;;;;;;5022927;28;20044;-73
2024/02/26 10:31:50;;;;;;;2.40;1.48;;;5.70;99.90;;;;;;5034757;28;20052;-73
2024/02/26 10:34:16;;;;;;;2.65;1.40;;;5.70;99.90;;;;;;5036495;28;20044;-73
2024/02/26 10:36:42;;;;;;;0.93;0.93;;;5.70;99.90;;;;;;5022858;28;20049;-74
2024/02/26 10:39:08;;;;;;;0.85;0.85;;;5.60;99.90;;;;;;5018215;28;20049;-74
2024/02/26 10:41:34;;;;;;;2.22;1.25;;;5.60;99.90;;;;;;5016326;28;20044;-74
2024/02/26 10:44:00;;;;;;;1.17;1.13;;;5.60;99.90;;;;;;5024739;28;20064;-73
2024/02/26 10:46:26;;;;;;;1.63;1.10;;;5.70;99.90;;;;;;5035530;28;20044;-73
2024/02/26 10:48:53;;;;;;;4.72;1.17;;;5.70;99.90;;;;;;5023824;28;20139;-73
2024/02/26 10:51:27;;;;;;;1.73;1.13;;;5.70;99.90;;;;;;5031385;28;20059;-73
2024/02/26 10:53:57;;;;;;;3.83;1.20;;;5.70;99.90;;;;;;5036193;28;20033;-73
2024/02/26 10:56:27;;;;;;;0.98;0.90;;;5.70;99.90;;;;;;5031853;28;20095;-73
2024/02/26 10:58:55;;;;;;;1.75;0.88;;;5.70;99.90;;;;;;5032601;28;20056;-73
2024/02/26 11:01:22;;;;;;;1.10;1.00;;;5.70;99.90;;;;;;5011949;28;20051;-73
2024/02/26 11:03:50;;;;;;;1.33;1.17;;;5.70;99.90;;;;;;5019493;28;20051;-73
2024/02/26 11:06:17;;;;;;;5.03;1.40;;;5.80;99.90;;;;;;5041441;28;20056;-73
2024/02/26 11:08:44;;;;;;;1.63;1.52;;;5.90;99.90;;;;;;5022464;28;20037;-73
2024/02/26 11:11:12;;;;;;;1.23;1.20;;;5.90;99.90;;;;;;5003617;28;20510;-73
2024/02/26 11:13:39;;;;;;;1.40;1.30;;;6.00;99.90;;;;;;5019461;28;20052;-73
2024/02/26 11:16:07;;;;;;;4.10;1.58;;;6.00;99.90;;;;;;4996253;28;20041;-73
2024/02/26 11:18:35;;;;;;;1.48;1.38;;;6.10;99.90;;;;;;5023236;28;20139;-74
2024/02/26 11:21:02;;;;;;;1.50;1.40;;;6.10;99.90;;;;;;5025341;28;20115;-73
2024/02/26 11:23:28;;;;;;;1.60;1.50;;;6.10;99.90;;;;;;5022189;28;20406;-73
2024/02/26 11:25:56;;;;;;;2.22;2.10;;;6.10;99.90;;;;;;5006981;28;20037;-73
2024/02/26 11:28:24;;;;;;;1.55;1.45;;;6.20;99.90;;;;;;5022884;28;20049;-73
2024/02/26 11:30:51;;;;;;;2.50;2.38;;;6.20;99.90;;;;;;5023994;28;20084;-73
2024/02/26 11:33:17;;;;;;;2.55;1.92;;;6.20;99.90;;;;;;5016674;28;20501;-73
2024/02/26 11:35:45;;;;;;;2.60;1.80;;;6.10;99.90;;;;;;5022207;28;20057;-73
2024/02/26 11:38:23;;;;;;;3.40;2.55;;;6.20;99.90;;;;;;5023979;28;20131;-72
2024/02/26 11:40:50;;;;;;;3.17;2.20;;;6.20;99.90;;;;;;5011030;28;20092;-72
2024/02/26 11:43:16;;;;;;;3.00;2.35;;;6.20;99.90;;;;;;5045325;28;20476;-71
2024/02/26 11:45:43;;;;;;;6.03;1.88;;;6.20;99.90;;;;;;5010845;28;20546;-70
2024/02/26 11:48:17;;;;;;;3.03;2.20;;;6.30;99.90;;;;;;5035682;28;20078;-70
2024/02/26 11:50:46;;;;;;;3.10;2.78;;;6.30;99.90;;;;;;5031229;28;20052;-70
2024/02/26 11:53:25;;;;;;;2.03;1.90;;;6.30;99.90;;;;;;5032668;28;20388;-70
2024/02/26 11:56:19;;;;;;;2.50;2.30;;;6.30;99.90;;;;;;5004018;28;20052;-70
2024/02/26 11:58:49;;;;;;;3.35;2.63;;;6.30;99.90;;;;;;5020651;28;20507;-70
2024/02/26 12:01:53;;;;;;;4.25;2.72;;;6.30;99.90;;;;;;5033550;28;20048;-70
2024/02/26 12:04:26;;;;;;;4.63;2.70;;;6.30;99.90;;;;;;5023739;28;20057;-70
2024/02/26 12:07:37;;;;;;;3.45;2.88;;;6.10;99.90;;;;;;5021678;28;20085;-70
2024/02/26 12:10:21;;;;;;;3.92;2.92;;;6.00;99.90;;;;;;5013305;28;20056;-69
2024/02/26 12:17:35;;;;;;;6.53;3.33;;;5.90;99.90;;;;;;5027563;23;20056;-70
2024/02/26 12:20:24;;;;;;;2.97;2.78;;;5.80;99.90;;;;;;5032042;28;20100;-69
2024/02/26 12:26:52;;;;;;;2.33;2.17;;;5.60;99.90;;;;;;4749806;26;20041;-70
2024/02/26 12:30:06;;;;;;;3.42;2.10;;;5.60;99.90;;;;;;5033407;28;20494;-70
2024/02/26 12:33:08;;;;;;;3.13;2.83;;;5.50;99.90;;;;;;5066513;23;20053;-70
2024/02/26 12:36:41;;;;;;;2.42;2.22;;;5.60;99.90;;;;;;5041037;28;20167;-70
2024/02/26 12:48:43;;;;;;;4.57;3.13;;;5.50;99.90;;;;;;5003519;28;20057;-70
2024/02/26 12:51:10;;;;;;;3.95;3.55;;;5.50;99.90;;;;;;5006405;28;20125;-70
2024/02/26 12:53:37;;;;;;;3.75;3.38;;;5.60;99.90;;;;;;5022712;28;20081;-70
2024/02/26 12:56:04;;;;;;;3.97;3.15;;;5.50;99.90;;;;;;5004629;28;20054;-69
2024/02/26 12:58:32;;;;;;;5.70;3.80;;;5.60;99.90;;;;;;5005229;28;20091;-70
2024/02/26 13:01:03;;;;;;;3.58;2.95;;;5.60;99.90;;;;;;5001523;28;20041;-71
2024/02/26 13:03:34;;;;;;;4.60;4.10;;;5.60;99.90;;;;;;5001368;28;20483;-70
2024/02/26 13:06:02;;;;;;;3.50;3.22;;;5.60;99.90;;;;;;5005754;28;20068;-69
2024/02/26 13:08:29;;;;;;;5.32;4.07;;;5.50;99.90;;;;;;5006112;28;20046;-70
2024/02/26 13:10:55;;;;;;;4.30;3.90;;;5.50;99.90;;;;;;5003911;28;20065;-70
2024/02/26 13:13:24;;;;;;;5.07;4.28;;;5.50;99.90;;;;;;5007557;28;20053;-70
2024/02/26 13:16:07;;;;;;;6.25;4.90;;;5.50;99.90;;;;;;5007683;28;20764;-69